Time;durP1;ratioP1;P1;durP2;ratioP2;P2;SDS_P1;SDS_P2;PMS_P1;PMS_P2;Temp;Humidity;BMP_temperature;BMP_pressure;BME280_temperature;BME280_humidity;BME280_pressure;Samples;Min_cycle;Max_cycle;Signal;HPM_P1;HPM_P2
2020/12/22 00:00:38;;;;;;;15.00;11.63;;;10.90;99.90;;;;;;4994484;28;20755;-79
2020/12/22 00:03:04;;;;;;;13.90;12.27;;;10.90;99.90;;;;;;4993763;28;20208;-73
2020/12/22 00:05:31;;;;;;;14.20;12.70;;;10.90;99.90;;;;;;4994115;28;20212;-74
2020/12/22 00:07:59;;;;;;;12.53;11.33;;;11.00;99.90;;;;;;4993968;28;20624;-74
2020/12/22 00:10:25;;;;;;;12.93;10.20;;;10.90;99.90;;;;;;4994177;28;20201;-74
2020/12/22 00:12:51;;;;;;;14.67;12.70;;;10.90;99.90;;;;;;4994493;28;20223;-79
2020/12/22 00:15:18;;;;;;;15.13;12.23;;;10.90;99.90;;;;;;4993770;28;20201;-73
2020/12/22 00:17:45;;;;;;;14.27;11.53;;;10.90;99.90;;;;;;4994347;28;20336;-75
2020/12/22 00:20:12;;;;;;;12.40;10.40;;;10.90;99.90;;;;;;4993432;28;20559;-82
2020/12/22 00:22:39;;;;;;;14.00;10.90;;;10.90;99.90;;;;;;4994173;28;20220;-75
2020/12/22 00:25:06;;;;;;;13.90;10.80;;;10.90;99.90;;;;;;4993581;28;20212;-74
2020/12/22 00:27:33;;;;;;;11.77;9.77;;;10.90;99.90;;;;;;4994386;28;20212;-75
2020/12/22 00:30:01;;;;;;;10.60;9.53;;;10.90;99.90;;;;;;4993617;28;20213;-82
2020/12/22 00:32:27;;;;;;;11.23;9.30;;;10.90;99.90;;;;;;4994115;28;20247;-80
2020/12/22 00:34:54;;;;;;;11.10;10.00;;;10.80;99.90;;;;;;4994194;28;20205;-78
2020/12/22 00:37:20;;;;;;;10.63;9.53;;;10.90;99.90;;;;;;4993411;28;20235;-81
2020/12/22 00:39:47;;;;;;;13.30;10.63;;;10.90;99.90;;;;;;4993959;28;20212;-85
2020/12/22 00:42:14;;;;;;;10.20;9.10;;;10.90;99.90;;;;;;4993568;28;20264;-80
2020/12/22 00:44:41;;;;;;;12.23;10.23;;;11.00;99.90;;;;;;4993281;28;20205;-80
2020/12/22 00:47:08;;;;;;;13.30;10.30;;;10.90;99.90;;;;;;4993434;28;20208;-80
2020/12/22 00:49:34;;;;;;;11.17;10.13;;;10.90;99.90;;;;;;4993878;28;20201;-84
2020/12/22 00:52:01;;;;;;;11.77;10.57;;;10.90;99.90;;;;;;4993279;28;20690;-79
2020/12/22 00:54:28;;;;;;;11.00;9.83;;;10.90;99.90;;;;;;4993711;28;20697;-80
2020/12/22 00:56:55;;;;;;;14.27;11.33;;;10.90;99.90;;;;;;4993861;28;20696;-81
2020/12/22 00:59:22;;;;;;;11.27;10.00;;;10.90;99.90;;;;;;4994120;28;20217;-85
2020/12/22 01:01:49;;;;;;;11.93;10.00;;;10.90;99.90;;;;;;4993798;28;20252;-85
2020/12/22 01:04:16;;;;;;;11.07;10.00;;;10.80;99.90;;;;;;4993493;28;20267;-85
2020/12/22 01:06:42;;;;;;;13.17;11.17;;;10.70;99.90;;;;;;4993314;28;20282;-80
2020/12/22 01:09:09;;;;;;;13.27;11.87;;;10.70;99.90;;;;;;4993315;28;20215;-81
2020/12/22 01:11:36;;;;;;;12.80;11.33;;;10.60;99.90;;;;;;4993207;28;20208;-74
2020/12/22 01:14:03;;;;;;;11.73;10.53;;;10.50;99.90;;;;;;4992861;28;20731;-79
2020/12/22 01:16:31;;;;;;;11.83;10.10;;;10.50;99.90;;;;;;4993125;28;20259;-73
2020/12/22 01:18:57;;;;;;;13.40;12.00;;;10.40;99.90;;;;;;4992400;28;20228;-76
2020/12/22 01:21:24;;;;;;;13.83;11.60;;;10.40;99.90;;;;;;4993385;28;20252;-76
2020/12/22 01:23:51;;;;;;;11.10;10.00;;;10.30;99.90;;;;;;4992975;28;20716;-77
2020/12/22 01:26:19;;;;;;;12.50;11.20;;;10.40;99.90;;;;;;4992638;28;20752;-81
2020/12/22 01:28:46;;;;;;;11.47;9.97;;;10.30;99.90;;;;;;4992957;28;20727;-76
2020/12/22 01:31:12;;;;;;;11.30;10.20;;;10.20;99.90;;;;;;4992283;28;20677;-82
2020/12/22 01:33:40;;;;;;;12.37;10.90;;;10.20;99.90;;;;;;4992710;28;20205;-78
2020/12/22 01:36:06;;;;;;;12.60;10.50;;;10.30;99.90;;;;;;4992215;28;20224;-80
2020/12/22 01:38:33;;;;;;;15.13;11.37;;;10.30;99.90;;;;;;4992867;28;20236;-79
2020/12/22 01:40:59;;;;;;;13.10;11.10;;;10.10;99.90;;;;;;4992174;28;20205;-76
2020/12/22 01:43:25;;;;;;;11.70;10.50;;;10.20;99.90;;;;;;4992559;28;20220;-77
2020/12/22 01:45:52;;;;;;;14.03;11.63;;;10.30;99.90;;;;;;4992715;28;20209;-80
2020/12/22 01:48:18;;;;;;;21.17;11.93;;;10.20;99.90;;;;;;4992260;28;20209;-78
2020/12/22 01:50:46;;;;;;;13.37;12.07;;;10.20;99.90;;;;;;4992854;28;20220;-77
2020/12/22 01:53:12;;;;;;;15.27;13.53;;;10.10;99.90;;;;;;4992167;28;20209;-77
2020/12/22 01:55:41;;;;;;;20.83;15.63;;;10.00;99.90;;;;;;4992505;28;20676;-82
2020/12/22 01:58:07;;;;;;;18.37;16.40;;;10.00;99.90;;;;;;4992264;28;20228;-86
2020/12/22 02:00:34;;;;;;;19.03;16.97;;;9.90;99.90;;;;;;4992382;28;20650;-77
2020/12/22 02:03:00;;;;;;;24.57;18.10;;;9.90;99.90;;;;;;4991872;28;20596;-84
2020/12/22 02:05:27;;;;;;;23.10;19.60;;;9.90;99.90;;;;;;4992952;28;20208;-77
2020/12/22 02:07:55;;;;;;;25.60;20.23;;;9.80;99.90;;;;;;4993005;28;20209;-77
2020/12/22 02:10:21;;;;;;;26.27;20.87;;;9.80;99.90;;;;;;4992397;28;20566;-77
2020/12/22 02:12:48;;;;;;;22.23;19.23;;;9.70;99.90;;;;;;4992445;28;20205;-77
2020/12/22 02:15:14;;;;;;;24.47;19.73;;;9.70;99.90;;;;;;4990943;28;21262;-77
2020/12/22 02:17:40;;;;;;;23.83;18.57;;;9.80;99.90;;;;;;4991906;28;20672;-78
2020/12/22 02:20:07;;;;;;;22.67;19.17;;;9.70;99.90;;;;;;4991317;28;20224;-79
2020/12/22 02:22:35;;;;;;;21.60;18.43;;;9.60;99.90;;;;;;4991803;28;20252;-72
2020/12/22 02:25:01;;;;;;;20.13;17.93;;;9.50;99.90;;;;;;4991141;28;20215;-78
2020/12/22 02:27:28;;;;;;;23.17;19.90;;;9.40;99.90;;;;;;4992091;28;20205;-80
2020/12/22 02:29:54;;;;;;;23.47;19.83;;;9.60;99.90;;;;;;4991681;28;20263;-80
2020/12/22 02:32:21;;;;;;;26.20;18.97;;;9.60;99.90;;;;;;4991616;28;20216;-80
2020/12/22 02:34:48;;;;;;;28.97;19.63;;;9.60;99.90;;;;;;4991957;28;20228;-81
2020/12/22 02:37:20;;;;;;;21.73;15.70;;;9.60;99.90;;;;;;4991053;28;20252;-81
2020/12/22 02:39:48;;;;;;;18.70;16.83;;;9.50;99.90;;;;;;4991698;28;20284;-82
2020/12/22 02:42:14;;;;;;;21.27;19.00;;;9.40;99.90;;;;;;4990916;28;20581;-75
2020/12/22 02:44:41;;;;;;;18.03;16.23;;;9.40;99.90;;;;;;4991521;28;20211;-75
2020/12/22 02:47:12;;;;;;;20.93;16.70;;;9.40;99.90;;;;;;4991300;28;20205;-79
2020/12/22 02:49:38;;;;;;;18.77;16.77;;;9.40;99.90;;;;;;4991633;28;20651;-76
2020/12/22 02:52:05;;;;;;;20.37;17.43;;;9.40;99.90;;;;;;4991082;28;20212;-75
2020/12/22 02:54:31;;;;;;;18.83;16.97;;;9.50;99.90;;;;;;4991282;28;20255;-75
2020/12/22 02:56:59;;;;;;;23.13;19.20;;;9.60;99.90;;;;;;4990950;28;20205;-77
2020/12/22 02:59:25;;;;;;;20.20;18.07;;;9.60;99.90;;;;;;4990980;28;20899;-76
2020/12/22 03:01:52;;;;;;;20.00;17.87;;;9.60;99.90;;;;;;4991697;28;20680;-81
2020/12/22 03:04:18;;;;;;;20.97;17.67;;;9.70;99.90;;;;;;4990825;28;20224;-75
2020/12/22 03:06:45;;;;;;;20.07;16.67;;;9.70;99.90;;;;;;4991222;28;20209;-80
2020/12/22 03:09:12;;;;;;;17.97;15.90;;;9.70;99.90;;;;;;4990692;28;20739;-79
2020/12/22 03:11:38;;;;;;;16.97;15.10;;;9.70;99.90;;;;;;4991132;28;20201;-74
2020/12/22 03:14:05;;;;;;;17.17;15.33;;;9.70;99.90;;;;;;4990862;28;20586;-74
2020/12/22 03:16:32;;;;;;;18.00;16.13;;;9.60;99.90;;;;;;4991204;28;20209;-75
2020/12/22 03:18:58;;;;;;;17.87;14.67;;;9.60;99.90;;;;;;4991068;28;20236;-82
2020/12/22 03:21:25;;;;;;;18.23;16.40;;;9.50;99.90;;;;;;4991630;28;20204;-76
2020/12/22 03:23:51;;;;;;;17.07;15.33;;;9.40;99.90;;;;;;4991204;28;20262;-76
2020/12/22 03:26:18;;;;;;;21.27;17.20;;;9.40;99.90;;;;;;4993905;28;20213;-77
2020/12/22 03:28:44;;;;;;;17.20;14.93;;;9.30;99.90;;;;;;4994862;28;20208;-77
2020/12/22 03:31:11;;;;;;;18.20;16.37;;;9.20;99.90;;;;;;4994863;28;20208;-77
2020/12/22 03:33:38;;;;;;;18.30;14.93;;;9.10;99.90;;;;;;4994979;28;20631;-83
2020/12/22 03:36:04;;;;;;;18.80;16.00;;;9.10;99.90;;;;;;4994916;28;20266;-75
2020/12/22 03:38:31;;;;;;;15.17;13.60;;;9.10;99.90;;;;;;4994743;28;20742;-76
2020/12/22 03:40:57;;;;;;;18.60;16.37;;;9.00;99.90;;;;;;4994372;28;20209;-77
2020/12/22 03:43:23;;;;;;;16.40;14.70;;;9.00;99.90;;;;;;4994916;28;20209;-77
2020/12/22 03:45:50;;;;;;;28.63;15.07;;;9.10;99.90;;;;;;4994899;28;20221;-81
2020/12/22 03:48:17;;;;;;;17.87;14.90;;;9.00;99.90;;;;;;4994554;28;20620;-76
2020/12/22 03:50:46;;;;;;;16.03;14.33;;;9.00;99.90;;;;;;4994711;28;20204;-76
2020/12/22 03:53:13;;;;;;;15.73;13.60;;;9.00;99.90;;;;;;4994057;28;20204;-81
2020/12/22 03:55:39;;;;;;;16.03;14.43;;;8.90;99.90;;;;;;4992943;28;20212;-81
2020/12/22 03:58:05;;;;;;;14.87;13.27;;;8.80;99.90;;;;;;4994040;28;20236;-81
2020/12/22 04:00:32;;;;;;;15.00;13.37;;;8.80;99.90;;;;;;4994824;28;20201;-79
2020/12/22 04:02:58;;;;;;;16.43;14.17;;;8.80;99.90;;;;;;4993922;28;20267;-78
2020/12/22 04:05:26;;;;;;;14.80;13.30;;;8.70;99.90;;;;;;4995063;28;20209;-78
2020/12/22 04:07:52;;;;;;;13.73;12.33;;;8.70;99.90;;;;;;4994615;28;20212;-73
2020/12/22 04:10:18;;;;;;;15.37;13.63;;;8.60;99.90;;;;;;4994299;28;20236;-74
2020/12/22 04:12:45;;;;;;;13.60;12.27;;;8.60;99.90;;;;;;4993739;28;20216;-74
2020/12/22 04:15:11;;;;;;;14.93;13.37;;;8.60;99.90;;;;;;4994347;28;20216;-75
2020/12/22 04:17:40;;;;;;;13.23;11.93;;;8.50;99.90;;;;;;4994194;28;20235;-84
2020/12/22 04:20:07;;;;;;;12.43;11.27;;;8.60;99.90;;;;;;4993765;28;20213;-74
2020/12/22 04:22:34;;;;;;;14.30;11.87;;;8.50;99.90;;;;;;4993565;28;20216;-74
2020/12/22 04:25:01;;;;;;;15.10;13.50;;;8.50;99.90;;;;;;4993831;28;20264;-75
2020/12/22 04:27:27;;;;;;;12.77;11.17;;;8.50;99.90;;;;;;4994226;28;20220;-82
2020/12/22 04:29:54;;;;;;;13.57;12.27;;;8.50;99.90;;;;;;4993935;28;20676;-82
2020/12/22 04:32:20;;;;;;;13.53;11.60;;;8.60;99.90;;;;;;4994245;28;20225;-83
2020/12/22 04:34:47;;;;;;;12.00;10.80;;;8.60;99.90;;;;;;4993943;28;20688;-75
2020/12/22 04:37:14;;;;;;;13.23;11.93;;;8.70;99.90;;;;;;4992697;28;20213;-82
2020/12/22 04:39:41;;;;;;;12.67;11.37;;;8.70;99.90;;;;;;4993479;28;20224;-80
2020/12/22 04:42:08;;;;;;;12.00;10.73;;;8.60;99.90;;;;;;4993468;28;20213;-82
2020/12/22 04:44:35;;;;;;;11.73;10.57;;;8.70;99.90;;;;;;4994072;28;20209;-77
2020/12/22 04:47:04;;;;;;;13.87;12.47;;;8.70;99.90;;;;;;4993313;28;20715;-79
2020/12/22 04:49:32;;;;;;;13.33;11.90;;;8.60;99.90;;;;;;4993789;28;20235;-78
2020/12/22 04:52:01;;;;;;;15.07;11.30;;;8.50;99.90;;;;;;4993134;28;20205;-75
2020/12/22 04:54:27;;;;;;;12.93;11.57;;;8.60;99.90;;;;;;4994021;28;20208;-88
2020/12/22 04:56:56;;;;;;;14.90;11.90;;;8.70;99.90;;;;;;4993869;28;20209;-72
2020/12/22 04:59:22;;;;;;;13.63;11.37;;;8.70;99.90;;;;;;4993772;28;20243;-73
2020/12/22 05:01:50;;;;;;;11.10;10.00;;;8.80;99.90;;;;;;4993211;28;20212;-72
2020/12/22 05:04:16;;;;;;;12.77;11.47;;;8.80;99.90;;;;;;4992845;28;20782;-72
2020/12/22 05:06:42;;;;;;;17.57;12.83;;;8.80;99.90;;;;;;4993434;28;20215;-73
2020/12/22 05:09:09;;;;;;;22.40;11.60;;;8.90;99.90;;;;;;4992562;28;20260;-74
2020/12/22 05:11:36;;;;;;;27.03;12.10;;;8.80;99.90;;;;;;4993086;28;20587;-73
2020/12/22 05:14:05;;;;;;;28.43;13.87;;;8.80;99.90;;;;;;4992635;28;20209;-73
2020/12/22 05:16:35;;;;;;;31.40;12.70;;;8.90;99.90;;;;;;4993029;28;20221;-74
2020/12/22 05:19:03;;;;;;;39.00;14.73;;;8.90;99.90;;;;;;4992510;28;20228;-74
2020/12/22 05:21:36;;;;;;;50.07;15.20;;;8.80;99.90;;;;;;4993473;28;20229;-83
2020/12/22 05:24:03;;;;;;;49.97;17.40;;;8.80;99.90;;;;;;4992326;28;20216;-83
2020/12/22 05:26:33;;;;;;;33.23;15.93;;;8.70;99.90;;;;;;4983242;28;20683;-74
2020/12/22 05:29:09;;;;;;;75.30;18.80;;;8.70;99.90;;;;;;4986652;28;20209;-81
2020/12/22 05:31:42;;;;;;;40.30;17.00;;;8.70;99.90;;;;;;4988350;28;20207;-82
2020/12/22 05:34:10;;;;;;;20.07;14.80;;;8.70;99.90;;;;;;4984998;28;20206;-80
2020/12/22 05:36:39;;;;;;;21.93;14.37;;;8.70;99.90;;;;;;4992442;28;20201;-81
2020/12/22 05:39:07;;;;;;;24.13;13.17;;;8.80;99.90;;;;;;4991971;28;20244;-82
2020/12/22 05:41:34;;;;;;;30.57;15.53;;;8.80;99.90;;;;;;4992295;28;20661;-76
2020/12/22 05:44:01;;;;;;;28.07;14.53;;;8.80;99.90;;;;;;4992112;28;20212;-77
2020/12/22 05:46:30;;;;;;;35.23;13.77;;;8.70;99.90;;;;;;4992023;28;20239;-77
2020/12/22 05:49:00;;;;;;;44.73;14.93;;;8.60;99.90;;;;;;4991437;28;20213;-79
2020/12/22 05:51:27;;;;;;;51.40;14.77;;;8.60;99.90;;;;;;4992199;28;20256;-78
2020/12/22 05:53:54;;;;;;;26.77;13.43;;;8.50;99.90;;;;;;4992931;28;20208;-76
2020/12/22 05:56:23;;;;;;;42.50;17.73;;;8.60;99.90;;;;;;4991987;28;20259;-76
2020/12/22 05:58:50;;;;;;;75.20;17.80;;;8.60;99.90;;;;;;4992583;28;20255;-84
2020/12/22 06:01:31;;;;;;;34.90;13.90;;;8.50;99.90;;;;;;4992225;28;20577;-82
2020/12/22 06:03:58;;;;;;;30.27;14.77;;;8.50;99.90;;;;;;4991971;28;20200;-76
2020/12/22 06:06:29;;;;;;;32.73;16.37;;;8.50;99.90;;;;;;4991612;28;20596;-76
2020/12/22 06:08:56;;;;;;;24.13;15.70;;;8.50;99.90;;;;;;4991648;28;20628;-76
2020/12/22 06:11:24;;;;;;;44.67;19.57;;;8.60;99.90;;;;;;4992693;28;20212;-78
2020/12/22 06:13:51;;;;;;;38.43;17.30;;;8.60;99.90;;;;;;4990917;28;20212;-83
2020/12/22 06:16:20;;;;;;;56.57;22.73;;;8.50;99.90;;;;;;4991770;28;20255;-83
2020/12/22 06:18:49;;;;;;;48.77;20.43;;;8.60;99.90;;;;;;4991792;28;20746;-83
2020/12/22 06:21:17;;;;;;;53.73;22.40;;;8.70;99.90;;;;;;4984237;28;20213;-82
2020/12/22 06:23:44;;;;;;;38.00;17.87;;;8.60;99.90;;;;;;4991635;28;20224;-83
2020/12/22 06:26:12;;;;;;;35.83;18.90;;;8.60;99.90;;;;;;4991071;28;20213;-76
2020/12/22 06:28:39;;;;;;;54.67;17.57;;;8.60;99.90;;;;;;4991586;28;20208;-74
2020/12/22 06:31:22;;;;;;;35.63;16.27;;;8.50;99.90;;;;;;4991091;28;20669;-74
2020/12/22 06:33:49;;;;;;;30.30;13.57;;;8.60;99.90;;;;;;4991327;28;20669;-74
2020/12/22 06:36:17;;;;;;;20.47;13.33;;;8.60;99.90;;;;;;4990896;28;20212;-74
2020/12/22 06:39:02;;;;;;;23.53;13.40;;;8.50;99.90;;;;;;4991684;28;20316;-76
2020/12/22 06:41:46;;;;;;;24.57;12.77;;;8.50;99.90;;;;;;4991247;28;20578;-74
2020/12/22 06:44:18;;;;;;;14.50;11.80;;;8.40;99.90;;;;;;4990777;28;20204;-83
2020/12/22 06:46:46;;;;;;;16.53;12.10;;;8.40;99.90;;;;;;4991370;28;20212;-82
2020/12/22 06:49:13;;;;;;;20.77;15.80;;;8.30;99.90;;;;;;4990363;28;20215;-74
2020/12/22 06:51:41;;;;;;;15.13;13.30;;;8.30;99.90;;;;;;4991225;28;20205;-76
2020/12/22 06:54:33;;;;;;;13.70;11.67;;;8.40;99.90;;;;;;4990880;28;20688;-74
2020/12/22 06:57:00;;;;;;;14.80;11.97;;;8.30;99.90;;;;;;4991195;28;20209;-81
2020/12/22 06:59:48;;;;;;;15.10;12.33;;;8.20;99.90;;;;;;4990954;28;20259;-74
2020/12/22 07:02:31;;;;;;;14.20;11.63;;;8.20;99.90;;;;;;4990964;28;20650;-82
2020/12/22 07:05:00;;;;;;;13.20;11.47;;;8.30;99.90;;;;;;4990490;28;20681;-73
2020/12/22 07:07:26;;;;;;;14.23;12.20;;;8.40;99.90;;;;;;4991040;28;20205;-72
2020/12/22 07:10:05;;;;;;;16.27;12.53;;;8.30;99.90;;;;;;4991572;28;20212;-72
2020/12/22 07:12:31;;;;;;;13.20;11.50;;;8.20;99.90;;;;;;4991028;28;20208;-73
2020/12/22 07:14:59;;;;;;;16.53;12.87;;;8.20;99.90;;;;;;4990849;28;20263;-74
2020/12/22 07:17:26;;;;;;;14.03;12.60;;;8.20;99.90;;;;;;4990855;28;20228;-74
2020/12/22 07:19:55;;;;;;;15.13;12.30;;;8.20;99.90;;;;;;4991316;28;20672;-74
2020/12/22 07:22:23;;;;;;;15.33;12.07;;;8.20;99.90;;;;;;4990844;28;20227;-74
2020/12/22 07:24:50;;;;;;;18.13;16.20;;;8.20;99.90;;;;;;4991204;28;20209;-82
2020/12/22 07:27:16;;;;;;;15.67;12.83;;;8.10;99.90;;;;;;4991241;28;20642;-85
2020/12/22 07:29:43;;;;;;;13.97;12.57;;;8.10;99.90;;;;;;4991238;28;20213;-78
2020/12/22 07:32:11;;;;;;;14.23;12.50;;;8.10;99.90;;;;;;4990552;28;20212;-78
2020/12/22 07:34:38;;;;;;;20.00;14.37;;;8.00;99.90;;;;;;4990738;28;20209;-76
2020/12/22 07:37:08;;;;;;;15.23;13.50;;;8.00;99.90;;;;;;4990946;28;20583;-80
2020/12/22 07:39:36;;;;;;;16.93;11.77;;;8.00;99.90;;;;;;4990692;28;20256;-77
2020/12/22 07:42:11;;;;;;;12.33;10.67;;;8.00;99.90;;;;;;4990691;28;20275;-73
2020/12/22 07:44:37;;;;;;;16.80;12.20;;;8.00;99.90;;;;;;4990786;28;20208;-74
2020/12/22 07:47:04;;;;;;;15.53;12.83;;;8.20;99.90;;;;;;4990836;28;20208;-81
2020/12/22 07:49:31;;;;;;;16.37;11.80;;;8.20;99.90;;;;;;4990410;28;20692;-82
2020/12/22 07:51:57;;;;;;;15.50;13.90;;;8.10;99.90;;;;;;4990485;28;20628;-81
2020/12/22 07:54:26;;;;;;;13.90;11.97;;;8.10;99.90;;;;;;4991313;28;20209;-75
2020/12/22 07:56:57;;;;;;;19.77;13.80;;;8.20;99.90;;;;;;4991018;28;20213;-74
2020/12/22 07:59:24;;;;;;;16.57;13.50;;;8.20;99.90;;;;;;4990863;28;20237;-75
2020/12/22 08:01:52;;;;;;;17.20;13.27;;;8.20;99.90;;;;;;4988578;28;20227;-76
2020/12/22 08:04:20;;;;;;;24.77;17.80;;;8.20;99.90;;;;;;4989030;28;20216;-76
2020/12/22 08:06:57;;;;;;;30.37;21.37;;;8.30;99.90;;;;;;4989451;28;20314;-75
2020/12/22 08:09:27;;;;;;;20.90;16.53;;;8.30;99.90;;;;;;4990722;28;20216;-77
2020/12/22 08:11:56;;;;;;;24.07;18.63;;;8.40;99.90;;;;;;4991687;28;20213;-73
2020/12/22 08:14:24;;;;;;;19.90;15.67;;;8.60;99.90;;;;;;4994444;28;20236;-72
2020/12/22 08:16:54;;;;;;;14.93;12.37;;;8.80;99.90;;;;;;4994730;28;20209;-74
2020/12/22 08:19:22;;;;;;;12.00;10.80;;;8.90;99.90;;;;;;4993418;28;20229;-76
2020/12/22 08:21:49;;;;;;;16.07;13.30;;;9.00;99.90;;;;;;4993122;28;20236;-73
2020/12/22 08:24:17;;;;;;;14.40;12.90;;;9.10;99.90;;;;;;4993283;28;20719;-77
2020/12/22 08:26:45;;;;;;;18.07;13.57;;;9.20;99.90;;;;;;4994012;28;20286;-77
2020/12/22 08:29:15;;;;;;;14.93;11.30;;;9.30;99.90;;;;;;4993273;28;20676;-75
2020/12/22 08:31:42;;;;;;;14.43;11.17;;;9.70;99.90;;;;;;4993600;28;20209;-75
2020/12/22 08:34:09;;;;;;;9.77;8.77;;;9.70;99.90;;;;;;4993198;28;20216;-77
2020/12/22 08:36:36;;;;;;;10.27;9.23;;;9.80;99.90;;;;;;4993767;28;20635;-76
2020/12/22 08:39:23;;;;;;;10.57;9.57;;;10.00;99.90;;;;;;4993289;28;20236;-77
2020/12/22 08:41:51;;;;;;;10.23;9.23;;;9.70;99.90;;;;;;4993692;28;20213;-77
2020/12/22 08:44:20;;;;;;;10.00;8.77;;;10.30;99.90;;;;;;4992257;28;20221;-77
2020/12/22 08:46:47;;;;;;;8.60;7.57;;;10.90;99.90;;;;;;4991769;28;20264;-77
2020/12/22 08:49:15;;;;;;;7.40;6.13;;;11.00;99.90;;;;;;4993022;28;20217;-77
2020/12/22 08:51:43;;;;;;;8.27;7.47;;;10.90;99.90;;;;;;4992773;28;20213;-77
2020/12/22 08:54:10;;;;;;;9.70;6.87;;;10.90;99.90;;;;;;4993146;28;20212;-77
2020/12/22 08:56:37;;;;;;;12.80;6.97;;;10.90;99.90;;;;;;4993221;28;20205;-77
2020/12/22 08:59:06;;;;;;;9.80;8.23;;;10.80;99.90;;;;;;4992318;28;20287;-78
2020/12/22 09:01:42;;;;;;;6.03;5.40;;;10.80;99.90;;;;;;4991468;28;20673;-78
2020/12/22 09:04:10;;;;;;;11.70;7.80;;;11.30;99.90;;;;;;4992881;28;20204;-79
2020/12/22 09:06:39;;;;;;;11.90;8.27;;;11.80;99.90;;;;;;4993503;28;20209;-78
2020/12/22 09:09:06;;;;;;;10.23;9.23;;;12.10;99.90;;;;;;4992890;28;20212;-77
2020/12/22 09:11:33;;;;;;;13.30;10.00;;;12.20;99.90;;;;;;4993396;28;20212;-77
2020/12/22 09:14:01;;;;;;;8.50;7.70;;;12.10;99.90;;;;;;4982555;28;20239;-75
2020/12/22 09:16:46;;;;;;;13.13;8.77;;;12.10;99.90;;;;;;4989525;28;20209;-75
2020/12/22 09:19:13;;;;;;;8.50;7.23;;;12.30;99.90;;;;;;4991443;28;20243;-76
2020/12/22 09:21:40;;;;;;;9.07;7.60;;;12.50;99.90;;;;;;4992884;28;20212;-74
2020/12/22 09:24:06;;;;;;;7.53;6.80;;;12.90;99.90;;;;;;4989953;28;20216;-74
2020/12/22 09:26:33;;;;;;;8.40;7.03;;;13.30;99.90;;;;;;4988468;28;20208;-74
2020/12/22 09:29:00;;;;;;;6.85;6.20;;;13.40;99.90;;;;;;4991096;28;20288;-75
2020/12/22 09:31:28;;;;;;;7.75;6.05;;;13.50;99.90;;;;;;4989851;28;20212;-75
2020/12/22 09:33:55;;;;;;;11.57;6.25;;;14.10;99.90;;;;;;4992590;28;20216;-75
2020/12/22 09:36:21;;;;;;;12.55;7.80;;;14.60;99.90;;;;;;4992393;28;20213;-77
2020/12/22 09:38:48;;;;;;;15.73;8.73;;;16.00;99.90;;;;;;4992780;28;20243;-77
2020/12/22 09:41:14;;;;;;;11.55;8.95;;;16.90;99.90;;;;;;4991934;28;20208;-78
2020/12/22 09:43:41;;;;;;;10.38;8.65;;;17.70;99.90;;;;;;4991943;28;20584;-78
2020/12/22 09:46:07;;;;;;;9.65;8.32;;;18.10;99.90;;;;;;4991695;28;20220;-78
2020/12/22 09:48:34;;;;;;;8.45;6.22;;;18.60;99.90;;;;;;4992282;28;20201;-77
2020/12/22 09:51:01;;;;;;;7.95;6.25;;;18.70;99.90;;;;;;4991932;28;20607;-77
2020/12/22 09:53:27;;;;;;;7.82;6.72;;;18.80;99.90;;;;;;4991505;28;20215;-78
2020/12/22 09:55:54;;;;;;;7.93;6.47;;;18.50;99.90;;;;;;4992432;28;20591;-77
2020/12/22 09:58:21;;;;;;;7.65;7.03;;;18.50;99.90;;;;;;4991643;28;20252;-79
2020/12/22 10:00:47;;;;;;;8.55;6.53;;;18.70;99.90;;;;;;4990981;28;20213;-80
2020/12/22 10:03:13;;;;;;;7.63;6.05;;;19.40;99.90;;;;;;4990194;28;20267;-76
2020/12/22 10:05:40;;;;;;;6.10;5.57;;;19.80;99.90;;;;;;4990513;28;20627;-78
2020/12/22 10:08:07;;;;;;;5.70;5.20;;;20.20;99.90;;;;;;4991277;28;20240;-80
2020/12/22 10:10:34;;;;;;;6.38;5.75;;;20.30;99.90;;;;;;4991632;28;20590;-81
2020/12/22 10:13:00;;;;;;;7.95;5.65;;;19.90;99.90;;;;;;4991513;28;20216;-80
2020/12/22 10:15:27;;;;;;;6.47;5.85;;;19.10;99.90;;;;;;4990083;28;20217;-78
2020/12/22 10:17:53;;;;;;;6.97;6.03;;;18.70;99.90;;;;;;4991951;28;20595;-78
2020/12/22 10:20:20;;;;;;;7.05;6.35;;;18.00;99.90;;;;;;4991576;28;20235;-80
2020/12/22 10:22:46;;;;;;;9.60;7.80;;;17.50;99.90;;;;;;4991581;28;20705;-79
2020/12/22 10:25:14;;;;;;;11.60;7.22;;;16.90;99.90;;;;;;4991232;28;20213;-80
2020/12/22 10:27:40;;;;;;;8.15;7.10;;;17.20;99.90;;;;;;4991179;28;20208;-79
2020/12/22 10:30:07;;;;;;;4.55;4.15;;;17.90;99.90;;;;;;4991414;28;20209;-79
2020/12/22 10:32:34;;;;;;;5.13;4.45;;;17.70;99.90;;;;;;4991239;28;20212;-80
2020/12/22 10:35:01;;;;;;;5.20;4.07;;;16.90;99.90;;;;;;4990399;28;20592;-79
2020/12/22 10:37:28;;;;;;;3.47;3.03;;;16.60;99.90;;;;;;4991442;28;20208;-80
2020/12/22 10:39:54;;;;;;;5.10;2.28;;;16.20;99.90;;;;;;4991741;28;20237;-80
2020/12/22 10:42:21;;;;;;;2.08;1.88;;;16.80;99.90;;;;;;4991216;28;20215;-79
2020/12/22 10:44:48;;;;;;;4.25;2.22;;;16.10;99.90;;;;;;4991355;28;20208;-80
2020/12/22 10:47:14;;;;;;;3.47;2.15;;;14.90;99.90;;;;;;4991257;28;20868;-79
2020/12/22 10:49:41;;;;;;;5.65;2.22;;;14.10;99.90;;;;;;4991310;28;20563;-80
2020/12/22 10:52:08;;;;;;;3.35;2.20;;;13.80;99.90;;;;;;4990168;28;20216;-79
2020/12/22 10:54:34;;;;;;;5.78;1.75;;;13.80;99.90;;;;;;4991157;28;20212;-79
2020/12/22 10:57:01;;;;;;;4.43;2.40;;;13.90;99.90;;;;;;4989833;28;20742;-79
2020/12/22 10:59:28;;;;;;;4.03;2.72;;;14.00;99.90;;;;;;4991488;28;20611;-80
2020/12/22 11:01:56;;;;;;;4.47;2.38;;;14.10;99.90;;;;;;4991067;28;20259;-79
2020/12/22 11:04:23;;;;;;;2.97;2.67;;;14.30;99.90;;;;;;4989760;28;20640;-78
2020/12/22 11:06:59;;;;;;;2.53;2.03;;;14.30;99.90;;;;;;4990911;28;20208;-80
2020/12/22 11:09:25;;;;;;;2.55;2.35;;;14.40;99.90;;;;;;4990535;28;20279;-79
2020/12/22 11:11:52;;;;;;;3.05;1.70;;;14.30;99.90;;;;;;4990349;28;20719;-78
2020/12/22 11:14:18;;;;;;;4.22;2.35;;;14.40;99.90;;;;;;4990400;28;20578;-80
2020/12/22 11:16:46;;;;;;;4.18;2.00;;;14.40;99.90;;;;;;4987032;28;20578;-79
2020/12/22 11:19:13;;;;;;;2.38;1.75;;;14.60;99.90;;;;;;4987319;28;20228;-80
2020/12/22 11:21:43;;;;;;;2.03;1.38;;;14.70;99.90;;;;;;4990084;28;20209;-78
2020/12/22 11:24:10;;;;;;;1.60;1.50;;;14.80;99.90;;;;;;4989063;28;20722;-79
2020/12/22 11:26:37;;;;;;;2.22;1.73;;;14.70;99.90;;;;;;4994051;28;20209;-81
2020/12/22 11:29:04;;;;;;;2.13;1.50;;;14.70;99.90;;;;;;4990659;28;20217;-81
2020/12/22 11:31:31;;;;;;;2.05;1.60;;;14.70;99.90;;;;;;4990907;28;20212;-80
2020/12/22 11:33:58;;;;;;;2.35;1.65;;;14.80;99.90;;;;;;4990490;28;20270;-81
2020/12/22 11:36:25;;;;;;;3.33;2.58;;;15.00;99.90;;;;;;4991377;28;20209;-81
2020/12/22 11:38:51;;;;;;;3.67;3.38;;;15.10;99.90;;;;;;4991469;28;20350;-81
2020/12/22 11:41:21;;;;;;;4.35;3.17;;;14.90;99.90;;;;;;4990868;28;20205;-81
2020/12/22 11:43:48;;;;;;;2.83;2.55;;;15.10;99.90;;;;;;4991376;28;20213;-81
2020/12/22 11:46:15;;;;;;;2.95;2.30;;;15.20;99.90;;;;;;4990578;28;20217;-81
2020/12/22 11:48:42;;;;;;;3.42;2.13;;;15.30;99.90;;;;;;4995001;28;20244;-80
2020/12/22 11:51:09;;;;;;;2.00;1.90;;;15.30;99.90;;;;;;4994707;28;20249;-80
2020/12/22 11:53:36;;;;;;;2.15;1.95;;;15.30;99.90;;;;;;4987997;28;20676;-81
2020/12/22 11:56:06;;;;;;;2.35;2.10;;;15.40;99.90;;;;;;4993940;28;20594;-81
2020/12/22 11:58:33;;;;;;;2.38;2.17;;;15.40;99.90;;;;;;4994723;28;20225;-82
2020/12/22 12:00:59;;;;;;;3.03;2.40;;;15.50;99.90;;;;;;4991489;28;20280;-80
2020/12/22 12:03:26;;;;;;;3.25;2.67;;;15.50;99.90;;;;;;4994910;28;20205;-80
2020/12/22 12:05:52;;;;;;;3.85;3.35;;;15.50;99.90;;;;;;4994598;28;20212;-81
2020/12/22 12:08:19;;;;;;;3.78;2.53;;;15.70;99.90;;;;;;4994579;28;20213;-79
2020/12/22 12:10:48;;;;;;;2.63;2.17;;;15.70;99.90;;;;;;4994406;28;20220;-80
2020/12/22 12:13:15;;;;;;;3.15;2.40;;;15.80;99.90;;;;;;4994214;28;20684;-81
2020/12/22 12:15:41;;;;;;;2.25;2.13;;;15.70;99.90;;;;;;4994605;28;20219;-82
2020/12/22 12:18:07;;;;;;;3.55;2.70;;;15.70;99.90;;;;;;4994031;28;20645;-81
2020/12/22 12:20:34;;;;;;;3.25;2.95;;;15.80;99.90;;;;;;4994440;28;20669;-80
2020/12/22 12:23:00;;;;;;;3.25;2.95;;;15.80;99.90;;;;;;4987530;28;20221;-83
2020/12/22 12:25:28;;;;;;;4.97;2.65;;;15.90;99.90;;;;;;4986502;28;20216;-80
2020/12/22 12:27:54;;;;;;;3.17;2.40;;;16.00;99.90;;;;;;4986780;28;20263;-78
2020/12/22 12:30:22;;;;;;;4.00;2.45;;;16.10;99.90;;;;;;4993818;28;20205;-79
2020/12/22 12:32:49;;;;;;;3.35;2.33;;;16.20;99.90;;;;;;4993823;28;20205;-80
2020/12/22 12:35:15;;;;;;;3.20;2.20;;;16.20;99.90;;;;;;4993872;28;20213;-76
2020/12/22 12:37:41;;;;;;;2.35;1.80;;;16.40;99.90;;;;;;4993762;28;20474;-77
2020/12/22 12:40:08;;;;;;;1.33;1.08;;;16.60;99.90;;;;;;4992747;28;20236;-75